FLIGHT INFORMATION
United Airlines

UAL2390

At Arrival Gate

KORD
 KPDX
DATE: 2019-11-29
GATE:  -
GATE DEPARTURE: 19:12
TAKEOFF: 19:22
DATE: 2019-11-29
GATE:  -
LANDING: 23:27
GATE ARRIVAL: 23:33
FLIGHT DATA
Crew: MICHAEL ROTH
Speed: 474 kts Altitude: 34000 ft
Stage Length: 1507 nm
Route: 
Block Time: 4.4 Flight Time: 4.1
Fuel Used: 24361 LB
TRACK DATA
50000 FT1000 KTAltitudeSpeed
AIRCRAFT INFORMATION
Aircraft Type: B738SSW
Registration: N37267
SELCAL:  MSN/LN: 31586 / 939
Operator: UNITED AIRLINES
Flights: 26 Block Time: 66.1 Flight Time: 59.4
Fuel Used: 394987 LB
  • DEPARTURE INFORMATION
    Date: 2019-11-29
    Airport: KORD
    Gate:  -
    Gate Departure: 19:12
    Takeoff: 19:22
    ARRIVAL INFORMATION
    Date: 2019-11-29
    Airport: KPDX
    Gate:  -
    Landing: 23:27
    Gate Arrival: 23:33
  • FLIGHT DATA
    Crew: MICHAEL ROTH
    Speed: 474 kts Altitude: 34000 ft
    Stage Length: 814 nm
    Route: 
    Block Time: 4.4 Flight Time: 4.1
    Fuel Used: 24361 LB
  • AIRCRAFT INFORMATION
    Aircraft Type: B738SSW
    Registration: N37267
    SELCAL:  MSN/LN: 31586 / 939
    Operator: United Airlines
    Flights: 26 Block Time: 66.1 Flight Time: 59.4
    Fuel Used: 394987 LB

DATALINK LOG | Newest first | Current as of: 2020-05-25 13:46:53
LABEL ID SEQUENCE CONTENT Dn/Up
QD330223:33 7.1▼ Dn
QC284023:27▼ Dn
2U0546KPDX 290253Z 09014G23KT 10SM CLR 04/M06 A2987 RMK AO2 SLP113 T00391061 51010▲ Up
2S0546KPDX▼ Dn
GA4431ADVANCED GATE ASSIGNMENTS NOT YET AVAILABLE AT THIS AIRPORT▲ Up
GR4447KPDX --:-- MAAS 00 YP/UM 00/00 WCHR/S/C 00/00/00 DIPL/VIP NO▼ Dn
2U0851KPDX 290053Z 09016G22KT 10SM FEW060 FEW100 04/M06 A2985 RMK AO2 SLP109 T00391056▲ Up
5U0855KPDX 290559Z 10013KT 10SM SKC 04/M06 A2985▲ Up
5S0855KPDX▼ Dn
2S0851KPDX▼ Dn
QB233919:22▼ Dn
A31602CLEARED TO KPDX VIA MYKIE MONNY SMIDD FSD KD87Y KD90U KU03M JKNOX HHOOD4. SQUAWK 3747.▲ Up
B31302KORD KPDX UAL2390 N37267 ▼ Dn
QA121719:12 31.5▼ Dn
A71249CLEARANCE AVAIL WITHIN 0:25 OF EDT▲ Up
B31048KORD KPDX UAL2390 N37267 ▼ Dn
A70744CLEARANCE AVAIL WITHIN 0:25 OF EDT▲ Up
B30535KORD KPDX UAL2390 N37267 ▼ Dn
Q00643[LINK ACK]▲ Up
Q00310[LINK TEST]▼ Dn


AIRCRAFT HISTORY